sensor_id;sensor_type;location;lat;lon;timestamp;pressure;altitude;pressure_sealevel;temperature
20092;BMP180;10205;49.678;6.560;2023-08-06T00:01:57;98886.00;;;21.50
20092;BMP180;10205;49.678;6.560;2023-08-06T00:04:24;98875.00;;;21.40
20092;BMP180;10205;49.678;6.560;2023-08-06T00:06:51;98874.00;;;21.40
20092;BMP180;10205;49.678;6.560;2023-08-06T00:09:19;98876.00;;;21.40
20092;BMP180;10205;49.678;6.560;2023-08-06T00:11:46;98850.00;;;21.40
20092;BMP180;10205;49.678;6.560;2023-08-06T00:14:14;98866.00;;;21.40
20092;BMP180;10205;49.678;6.560;2023-08-06T00:16:44;98870.00;;;21.40
20092;BMP180;10205;49.678;6.560;2023-08-06T00:19:13;98867.00;;;21.30
20092;BMP180;10205;49.678;6.560;2023-08-06T00:21:40;98871.00;;;21.30
20092;BMP180;10205;49.678;6.560;2023-08-06T00:24:08;98867.00;;;21.30
20092;BMP180;10205;49.678;6.560;2023-08-06T00:26:35;98858.00;;;21.30
20092;BMP180;10205;49.678;6.560;2023-08-06T00:29:03;98843.00;;;21.20
20092;BMP180;10205;49.678;6.560;2023-08-06T00:31:31;98852.00;;;21.20
20092;BMP180;10205;49.678;6.560;2023-08-06T00:33:58;98850.00;;;21.20
20092;BMP180;10205;49.678;6.560;2023-08-06T00:36:27;98853.00;;;21.20
20092;BMP180;10205;49.678;6.560;2023-08-06T00:38:55;98846.00;;;21.10
20092;BMP180;10205;49.678;6.560;2023-08-06T00:41:22;98847.00;;;21.10
20092;BMP180;10205;49.678;6.560;2023-08-06T00:43:50;98851.00;;;21.00
20092;BMP180;10205;49.678;6.560;2023-08-06T00:46:18;98834.00;;;21.10
20092;BMP180;10205;49.678;6.560;2023-08-06T00:48:48;98842.00;;;21.00
20092;BMP180;10205;49.678;6.560;2023-08-06T00:51:18;98831.00;;;21.00
20092;BMP180;10205;49.678;6.560;2023-08-06T00:53:49;98835.00;;;21.00
20092;BMP180;10205;49.678;6.560;2023-08-06T00:56:17;98833.00;;;20.90
20092;BMP180;10205;49.678;6.560;2023-08-06T00:58:46;98836.00;;;20.90
20092;BMP180;10205;49.678;6.560;2023-08-06T01:01:16;98835.00;;;20.80
20092;BMP180;10205;49.678;6.560;2023-08-06T01:03:44;98845.00;;;20.80
20092;BMP180;10205;49.678;6.560;2023-08-06T01:06:12;98843.00;;;20.80
20092;BMP180;10205;49.678;6.560;2023-08-06T01:08:53;98843.00;;;20.80
20092;BMP180;10205;49.678;6.560;2023-08-06T01:11:30;98849.00;;;20.70
20092;BMP180;10205;49.678;6.560;2023-08-06T01:14:08;98845.00;;;20.70
20092;BMP180;10205;49.678;6.560;2023-08-06T01:16:39;98841.00;;;20.60
20092;BMP180;10205;49.678;6.560;2023-08-06T01:19:16;98840.00;;;20.60
20092;BMP180;10205;49.678;6.560;2023-08-06T01:21:45;98849.00;;;20.60
20092;BMP180;10205;49.678;6.560;2023-08-06T01:24:13;98850.00;;;20.60
20092;BMP180;10205;49.678;6.560;2023-08-06T01:26:45;98841.00;;;20.50
20092;BMP180;10205;49.678;6.560;2023-08-06T01:29:23;98849.00;;;20.50
20092;BMP180;10205;49.678;6.560;2023-08-06T01:31:55;98852.00;;;20.40
20092;BMP180;10205;49.678;6.560;2023-08-06T01:34:28;98845.00;;;20.40
20092;BMP180;10205;49.678;6.560;2023-08-06T01:37:00;98853.00;;;20.40
20092;BMP180;10205;49.678;6.560;2023-08-06T01:39:29;98844.00;;;20.30
20092;BMP180;10205;49.678;6.560;2023-08-06T01:41:56;98838.00;;;20.30
20092;BMP180;10205;49.678;6.560;2023-08-06T01:44:24;98850.00;;;20.30
20092;BMP180;10205;49.678;6.560;2023-08-06T01:46:51;98840.00;;;20.30
20092;BMP180;10205;49.678;6.560;2023-08-06T01:49:18;98837.00;;;20.30
20092;BMP180;10205;49.678;6.560;2023-08-06T01:51:46;98840.00;;;20.30
20092;BMP180;10205;49.678;6.560;2023-08-06T01:54:15;98834.00;;;20.30
20092;BMP180;10205;49.678;6.560;2023-08-06T01:56:42;98826.00;;;20.20
20092;BMP180;10205;49.678;6.560;2023-08-06T01:59:10;98826.00;;;20.20
20092;BMP180;10205;49.678;6.560;2023-08-06T02:01:37;98831.00;;;20.20
20092;BMP180;10205;49.678;6.560;2023-08-06T02:04:05;98837.00;;;20.20
20092;BMP180;10205;49.678;6.560;2023-08-06T02:06:33;98825.00;;;20.20
20092;BMP180;10205;49.678;6.560;2023-08-06T02:09:00;98826.00;;;20.20
20092;BMP180;10205;49.678;6.560;2023-08-06T02:11:29;98830.00;;;20.20
20092;BMP180;10205;49.678;6.560;2023-08-06T02:13:56;98830.00;;;20.10
20092;BMP180;10205;49.678;6.560;2023-08-06T02:16:24;98822.00;;;20.10
20092;BMP180;10205;49.678;6.560;2023-08-06T02:18:52;98825.00;;;20.10
20092;BMP180;10205;49.678;6.560;2023-08-06T02:21:19;98826.00;;;20.10
20092;BMP180;10205;49.678;6.560;2023-08-06T02:23:46;98826.00;;;20.10
20092;BMP180;10205;49.678;6.560;2023-08-06T02:26:14;98833.00;;;20.10
20092;BMP180;10205;49.678;6.560;2023-08-06T02:28:43;98826.00;;;20.10
20092;BMP180;10205;49.678;6.560;2023-08-06T02:31:11;98828.00;;;20.10
20092;BMP180;10205;49.678;6.560;2023-08-06T02:33:38;98820.00;;;20.00
20092;BMP180;10205;49.678;6.560;2023-08-06T02:36:06;98818.00;;;20.00
20092;BMP180;10205;49.678;6.560;2023-08-06T02:38:33;98820.00;;;20.00
20092;BMP180;10205;49.678;6.560;2023-08-06T02:41:03;98804.00;;;20.00
20092;BMP180;10205;49.678;6.560;2023-08-06T02:43:32;98814.00;;;20.00
20092;BMP180;10205;49.678;6.560;2023-08-06T02:46:01;98810.00;;;19.90
20092;BMP180;10205;49.678;6.560;2023-08-06T02:48:29;98809.00;;;19.90
20092;BMP180;10205;49.678;6.560;2023-08-06T02:50:58;98821.00;;;19.90
20092;BMP180;10205;49.678;6.560;2023-08-06T02:53:26;98810.00;;;19.90
20092;BMP180;10205;49.678;6.560;2023-08-06T02:55:54;98812.00;;;19.90
20092;BMP180;10205;49.678;6.560;2023-08-06T02:58:21;98814.00;;;19.90
20092;BMP180;10205;49.678;6.560;2023-08-06T03:01:01;98809.00;;;19.90
20092;BMP180;10205;49.678;6.560;2023-08-06T03:03:30;98780.00;;;19.80
20092;BMP180;10205;49.678;6.560;2023-08-06T03:05:59;98804.00;;;19.80
20092;BMP180;10205;49.678;6.560;2023-08-06T03:08:26;98808.00;;;19.80
20092;BMP180;10205;49.678;6.560;2023-08-06T03:10:54;98807.00;;;19.80
20092;BMP180;10205;49.678;6.560;2023-08-06T03:13:21;98791.00;;;19.80
20092;BMP180;10205;49.678;6.560;2023-08-06T03:15:56;98792.00;;;19.80
20092;BMP180;10205;49.678;6.560;2023-08-06T03:18:25;98804.00;;;19.80
20092;BMP180;10205;49.678;6.560;2023-08-06T03:20:53;98792.00;;;19.80
20092;BMP180;10205;49.678;6.560;2023-08-06T03:23:19;98799.00;;;19.80
20092;BMP180;10205;49.678;6.560;2023-08-06T03:25:47;98800.00;;;19.80
20092;BMP180;10205;49.678;6.560;2023-08-06T03:28:15;98787.00;;;19.70
20092;BMP180;10205;49.678;6.560;2023-08-06T03:30:43;98792.00;;;19.70
20092;BMP180;10205;49.678;6.560;2023-08-06T03:33:10;98795.00;;;19.70
20092;BMP180;10205;49.678;6.560;2023-08-06T03:35:39;98791.00;;;19.70
20092;BMP180;10205;49.678;6.560;2023-08-06T03:38:07;98787.00;;;19.70
20092;BMP180;10205;49.678;6.560;2023-08-06T03:40:35;98770.00;;;19.70
20092;BMP180;10205;49.678;6.560;2023-08-06T03:43:03;98785.00;;;19.70
20092;BMP180;10205;49.678;6.560;2023-08-06T03:45:32;98776.00;;;19.70
20092;BMP180;10205;49.678;6.560;2023-08-06T03:48:00;98771.00;;;19.70
20092;BMP180;10205;49.678;6.560;2023-08-06T03:50:27;98785.00;;;19.60
20092;BMP180;10205;49.678;6.560;2023-08-06T03:52:56;98787.00;;;19.60
20092;BMP180;10205;49.678;6.560;2023-08-06T03:55:27;98786.00;;;19.60
20092;BMP180;10205;49.678;6.560;2023-08-06T03:58:03;98779.00;;;19.60
20092;BMP180;10205;49.678;6.560;2023-08-06T04:00:30;98778.00;;;19.60
20092;BMP180;10205;49.678;6.560;2023-08-06T04:02:58;98774.00;;;19.60
20092;BMP180;10205;49.678;6.560;2023-08-06T04:05:25;98785.00;;;19.60
20092;BMP180;10205;49.678;6.560;2023-08-06T04:07:53;98787.00;;;19.60
20092;BMP180;10205;49.678;6.560;2023-08-06T04:10:22;98791.00;;;19.50
20092;BMP180;10205;49.678;6.560;2023-08-06T04:12:49;98799.00;;;19.50
20092;BMP180;10205;49.678;6.560;2023-08-06T04:15:17;98793.00;;;19.50
20092;BMP180;10205;49.678;6.560;2023-08-06T04:17:45;98768.00;;;19.50
20092;BMP180;10205;49.678;6.560;2023-08-06T04:20:13;98794.00;;;19.50
20092;BMP180;10205;49.678;6.560;2023-08-06T04:22:40;98798.00;;;19.50
20092;BMP180;10205;49.678;6.560;2023-08-06T04:25:09;98795.00;;;19.50
20092;BMP180;10205;49.678;6.560;2023-08-06T04:27:38;98798.00;;;19.50
20092;BMP180;10205;49.678;6.560;2023-08-06T04:30:09;98800.00;;;19.50
20092;BMP180;10205;49.678;6.560;2023-08-06T04:32:38;98785.00;;;19.50
20092;BMP180;10205;49.678;6.560;2023-08-06T04:35:06;98797.00;;;19.50
20092;BMP180;10205;49.678;6.560;2023-08-06T04:37:34;98796.00;;;19.50
20092;BMP180;10205;49.678;6.560;2023-08-06T04:40:01;98783.00;;;19.50
20092;BMP180;10205;49.678;6.560;2023-08-06T04:42:29;98793.00;;;19.50
20092;BMP180;10205;49.678;6.560;2023-08-06T04:44:57;98773.00;;;19.50
20092;BMP180;10205;49.678;6.560;2023-08-06T04:47:25;98801.00;;;19.50
20092;BMP180;10205;49.678;6.560;2023-08-06T04:49:53;98799.00;;;19.50
20092;BMP180;10205;49.678;6.560;2023-08-06T04:52:20;98804.00;;;19.50
20092;BMP180;10205;49.678;6.560;2023-08-06T04:54:47;98801.00;;;19.50
20092;BMP180;10205;49.678;6.560;2023-08-06T04:57:15;98803.00;;;19.50
20092;BMP180;10205;49.678;6.560;2023-08-06T04:59:42;98785.00;;;19.40
20092;BMP180;10205;49.678;6.560;2023-08-06T05:02:11;98807.00;;;19.50
20092;BMP180;10205;49.678;6.560;2023-08-06T05:04:38;98785.00;;;19.50
20092;BMP180;10205;49.678;6.560;2023-08-06T05:07:06;98820.00;;;19.50
20092;BMP180;10205;49.678;6.560;2023-08-06T05:09:34;98818.00;;;19.50
20092;BMP180;10205;49.678;6.560;2023-08-06T05:12:01;98825.00;;;19.50
20092;BMP180;10205;49.678;6.560;2023-08-06T05:14:29;98827.00;;;19.50
20092;BMP180;10205;49.678;6.560;2023-08-06T05:16:56;98827.00;;;19.50
20092;BMP180;10205;49.678;6.560;2023-08-06T05:19:29;98827.00;;;19.50
20092;BMP180;10205;49.678;6.560;2023-08-06T05:21:57;98830.00;;;19.50
20092;BMP180;10205;49.678;6.560;2023-08-06T05:24:24;98825.00;;;19.50
20092;BMP180;10205;49.678;6.560;2023-08-06T05:26:52;98831.00;;;19.50
20092;BMP180;10205;49.678;6.560;2023-08-06T05:29:20;98833.00;;;19.50
20092;BMP180;10205;49.678;6.560;2023-08-06T05:31:47;98838.00;;;19.50
20092;BMP180;10205;49.678;6.560;2023-08-06T05:34:14;98819.00;;;19.50
20092;BMP180;10205;49.678;6.560;2023-08-06T05:36:44;98830.00;;;19.50
20092;BMP180;10205;49.678;6.560;2023-08-06T05:39:11;98837.00;;;19.50
20092;BMP180;10205;49.678;6.560;2023-08-06T05:41:38;98847.00;;;19.50
20092;BMP180;10205;49.678;6.560;2023-08-06T05:44:06;98832.00;;;19.50
20092;BMP180;10205;49.678;6.560;2023-08-06T05:46:33;98847.00;;;19.50
20092;BMP180;10205;49.678;6.560;2023-08-06T05:49:01;98844.00;;;19.50
20092;BMP180;10205;49.678;6.560;2023-08-06T05:51:28;98834.00;;;19.50
20092;BMP180;10205;49.678;6.560;2023-08-06T05:53:57;98852.00;;;19.50
20092;BMP180;10205;49.678;6.560;2023-08-06T05:56:24;98838.00;;;19.50
20092;BMP180;10205;49.678;6.560;2023-08-06T05:58:52;98852.00;;;19.50
20092;BMP180;10205;49.678;6.560;2023-08-06T06:01:21;98851.00;;;19.50
20092;BMP180;10205;49.678;6.560;2023-08-06T06:03:49;98862.00;;;19.50
20092;BMP180;10205;49.678;6.560;2023-08-06T06:06:17;98850.00;;;19.50
20092;BMP180;10205;49.678;6.560;2023-08-06T06:08:46;98846.00;;;19.50
20092;BMP180;10205;49.678;6.560;2023-08-06T06:11:15;98849.00;;;19.50
20092;BMP180;10205;49.678;6.560;2023-08-06T06:13:42;98849.00;;;19.50
20092;BMP180;10205;49.678;6.560;2023-08-06T06:16:09;98842.00;;;19.40
20092;BMP180;10205;49.678;6.560;2023-08-06T06:18:37;98854.00;;;19.40
20092;BMP180;10205;49.678;6.560;2023-08-06T06:21:05;98856.00;;;19.40
20092;BMP180;10205;49.678;6.560;2023-08-06T06:23:32;98858.00;;;19.40
20092;BMP180;10205;49.678;6.560;2023-08-06T06:26:00;98854.00;;;19.40
20092;BMP180;10205;49.678;6.560;2023-08-06T06:28:29;98872.00;;;19.40
20092;BMP180;10205;49.678;6.560;2023-08-06T06:31:00;98884.00;;;19.40
20092;BMP180;10205;49.678;6.560;2023-08-06T06:33:29;98888.00;;;19.40
20092;BMP180;10205;49.678;6.560;2023-08-06T06:35:57;98868.00;;;19.40
20092;BMP180;10205;49.678;6.560;2023-08-06T06:38:24;98880.00;;;19.40
20092;BMP180;10205;49.678;6.560;2023-08-06T06:40:56;98888.00;;;19.40
20092;BMP180;10205;49.678;6.560;2023-08-06T06:43:24;98891.00;;;19.40
20092;BMP180;10205;49.678;6.560;2023-08-06T06:45:57;98874.00;;;19.40
20092;BMP180;10205;49.678;6.560;2023-08-06T06:48:26;98881.00;;;19.40
20092;BMP180;10205;49.678;6.560;2023-08-06T06:50:55;98869.00;;;19.30
20092;BMP180;10205;49.678;6.560;2023-08-06T06:53:23;98877.00;;;19.30
20092;BMP180;10205;49.678;6.560;2023-08-06T06:55:53;98880.00;;;19.40
20092;BMP180;10205;49.678;6.560;2023-08-06T06:58:21;98866.00;;;19.40
20092;BMP180;10205;49.678;6.560;2023-08-06T07:00:49;98869.00;;;19.40
20092;BMP180;10205;49.678;6.560;2023-08-06T07:03:19;98879.00;;;19.40
20092;BMP180;10205;49.678;6.560;2023-08-06T07:05:47;98889.00;;;19.40
20092;BMP180;10205;49.678;6.560;2023-08-06T07:08:14;98881.00;;;19.30
20092;BMP180;10205;49.678;6.560;2023-08-06T07:10:42;98877.00;;;19.30
20092;BMP180;10205;49.678;6.560;2023-08-06T07:13:10;98882.00;;;19.40
20092;BMP180;10205;49.678;6.560;2023-08-06T07:15:38;98896.00;;;19.40
20092;BMP180;10205;49.678;6.560;2023-08-06T07:18:05;98899.00;;;19.40
20092;BMP180;10205;49.678;6.560;2023-08-06T07:20:34;98901.00;;;19.40
20092;BMP180;10205;49.678;6.560;2023-08-06T07:23:01;98910.00;;;19.40
20092;BMP180;10205;49.678;6.560;2023-08-06T07:25:30;98920.00;;;19.40
20092;BMP180;10205;49.678;6.560;2023-08-06T07:28:00;98915.00;;;19.40
20092;BMP180;10205;49.678;6.560;2023-08-06T07:30:28;98923.00;;;19.40
20092;BMP180;10205;49.678;6.560;2023-08-06T07:32:55;98930.00;;;19.40
20092;BMP180;10205;49.678;6.560;2023-08-06T07:35:23;98927.00;;;19.40
20092;BMP180;10205;49.678;6.560;2023-08-06T07:37:53;98953.00;;;19.40
20092;BMP180;10205;49.678;6.560;2023-08-06T07:40:21;98960.00;;;19.40
20092;BMP180;10205;49.678;6.560;2023-08-06T07:42:48;98957.00;;;19.40
20092;BMP180;10205;49.678;6.560;2023-08-06T07:45:16;98977.00;;;19.40
20092;BMP180;10205;49.678;6.560;2023-08-06T07:47:44;98977.00;;;19.40
20092;BMP180;10205;49.678;6.560;2023-08-06T07:50:12;98971.00;;;19.40
20092;BMP180;10205;49.678;6.560;2023-08-06T07:52:39;98978.00;;;19.40
20092;BMP180;10205;49.678;6.560;2023-08-06T07:55:09;98991.00;;;19.40
20092;BMP180;10205;49.678;6.560;2023-08-06T07:57:36;99000.00;;;19.40
20092;BMP180;10205;49.678;6.560;2023-08-06T08:00:05;98998.00;;;19.30
20092;BMP180;10205;49.678;6.560;2023-08-06T08:02:33;98997.00;;;19.30
20092;BMP180;10205;49.678;6.560;2023-08-06T08:05:00;99009.00;;;19.30
20092;BMP180;10205;49.678;6.560;2023-08-06T08:07:28;99012.00;;;19.30
20092;BMP180;10205;49.678;6.560;2023-08-06T08:09:56;99021.00;;;19.30
20092;BMP180;10205;49.678;6.560;2023-08-06T08:12:25;99018.00;;;19.30
20092;BMP180;10205;49.678;6.560;2023-08-06T08:14:53;99024.00;;;19.30
20092;BMP180;10205;49.678;6.560;2023-08-06T08:17:24;99025.00;;;19.30
20092;BMP180;10205;49.678;6.560;2023-08-06T08:19:52;99033.00;;;19.30
20092;BMP180;10205;49.678;6.560;2023-08-06T08:22:19;99041.00;;;19.30
20092;BMP180;10205;49.678;6.560;2023-08-06T08:24:47;99053.00;;;19.30
20092;BMP180;10205;49.678;6.560;2023-08-06T08:27:14;99048.00;;;19.30
20092;BMP180;10205;49.678;6.560;2023-08-06T08:29:43;99041.00;;;19.30
20092;BMP180;10205;49.678;6.560;2023-08-06T08:32:11;99047.00;;;19.30
20092;BMP180;10205;49.678;6.560;2023-08-06T08:34:38;99050.00;;;19.20
20092;BMP180;10205;49.678;6.560;2023-08-06T08:37:06;99059.00;;;19.20
20092;BMP180;10205;49.678;6.560;2023-08-06T08:39:33;99057.00;;;19.20
20092;BMP180;10205;49.678;6.560;2023-08-06T08:42:01;99062.00;;;19.20
20092;BMP180;10205;49.678;6.560;2023-08-06T08:44:31;99064.00;;;19.20
20092;BMP180;10205;49.678;6.560;2023-08-06T08:47:01;99080.00;;;19.20
20092;BMP180;10205;49.678;6.560;2023-08-06T08:49:30;99077.00;;;19.20
20092;BMP180;10205;49.678;6.560;2023-08-06T08:52:02;99072.00;;;19.20
20092;BMP180;10205;49.678;6.560;2023-08-06T08:54:32;99069.00;;;19.30
20092;BMP180;10205;49.678;6.560;2023-08-06T08:57:00;99089.00;;;19.30
20092;BMP180;10205;49.678;6.560;2023-08-06T08:59:28;99103.00;;;19.30
20092;BMP180;10205;49.678;6.560;2023-08-06T09:01:59;99099.00;;;19.20
20092;BMP180;10205;49.678;6.560;2023-08-06T09:04:29;99107.00;;;19.20
20092;BMP180;10205;49.678;6.560;2023-08-06T09:06:59;99102.00;;;19.20
20092;BMP180;10205;49.678;6.560;2023-08-06T09:09:31;99112.00;;;19.20
20092;BMP180;10205;49.678;6.560;2023-08-06T09:12:04;99121.00;;;19.20
20092;BMP180;10205;49.678;6.560;2023-08-06T09:14:33;99134.00;;;19.10
20092;BMP180;10205;49.678;6.560;2023-08-06T09:17:03;99137.00;;;19.10
20092;BMP180;10205;49.678;6.560;2023-08-06T09:19:32;99134.00;;;19.00
20092;BMP180;10205;49.678;6.560;2023-08-06T09:22:00;99127.00;;;19.00
20092;BMP180;10205;49.678;6.560;2023-08-06T09:24:28;99137.00;;;19.00
20092;BMP180;10205;49.678;6.560;2023-08-06T09:26:56;99145.00;;;19.00
20092;BMP180;10205;49.678;6.560;2023-08-06T09:29:24;99151.00;;;19.00
20092;BMP180;10205;49.678;6.560;2023-08-06T09:31:51;99153.00;;;19.00
20092;BMP180;10205;49.678;6.560;2023-08-06T09:34:22;99157.00;;;19.00
20092;BMP180;10205;49.678;6.560;2023-08-06T09:36:51;99153.00;;;19.00
20092;BMP180;10205;49.678;6.560;2023-08-06T09:39:21;99158.00;;;19.00
20092;BMP180;10205;49.678;6.560;2023-08-06T09:41:55;99174.00;;;19.00
20092;BMP180;10205;49.678;6.560;2023-08-06T09:44:25;99181.00;;;19.00
20092;BMP180;10205;49.678;6.560;2023-08-06T09:46:55;99182.00;;;19.00
20092;BMP180;10205;49.678;6.560;2023-08-06T09:49:27;99192.00;;;19.10
20092;BMP180;10205;49.678;6.560;2023-08-06T09:51:55;99189.00;;;19.10
20092;BMP180;10205;49.678;6.560;2023-08-06T09:54:24;99190.00;;;19.00
20092;BMP180;10205;49.678;6.560;2023-08-06T09:56:53;99190.00;;;19.10
20092;BMP180;10205;49.678;6.560;2023-08-06T09:59:23;99187.00;;;19.10
20092;BMP180;10205;49.678;6.560;2023-08-06T10:01:51;99189.00;;;19.10
20092;BMP180;10205;49.678;6.560;2023-08-06T10:04:20;99194.00;;;19.10
20092;BMP180;10205;49.678;6.560;2023-08-06T10:06:49;99206.00;;;19.10
20092;BMP180;10205;49.678;6.560;2023-08-06T10:09:17;99201.00;;;19.10
20092;BMP180;10205;49.678;6.560;2023-08-06T10:11:51;99209.00;;;19.20
20092;BMP180;10205;49.678;6.560;2023-08-06T10:14:25;99199.00;;;19.20
20092;BMP180;10205;49.678;6.560;2023-08-06T10:16:57;99217.00;;;19.20
20092;BMP180;10205;49.678;6.560;2023-08-06T10:19:25;99223.00;;;19.20
20092;BMP180;10205;49.678;6.560;2023-08-06T10:22:12;99232.00;;;19.20
20092;BMP180;10205;49.678;6.560;2023-08-06T10:24:49;99238.00;;;19.20
20092;BMP180;10205;49.678;6.560;2023-08-06T10:27:28;99244.00;;;19.20
20092;BMP180;10205;49.678;6.560;2023-08-06T10:30:21;99247.00;;;19.20
20092;BMP180;10205;49.678;6.560;2023-08-06T10:32:50;99246.00;;;19.30
20092;BMP180;10205;49.678;6.560;2023-08-06T10:35:36;99238.00;;;19.30
20092;BMP180;10205;49.678;6.560;2023-08-06T10:38:08;99236.00;;;19.30
20092;BMP180;10205;49.678;6.560;2023-08-06T10:40:37;99239.00;;;19.30
20092;BMP180;10205;49.678;6.560;2023-08-06T10:43:07;99232.00;;;19.30
20092;BMP180;10205;49.678;6.560;2023-08-06T10:45:37;99240.00;;;19.40
20092;BMP180;10205;49.678;6.560;2023-08-06T10:48:05;99255.00;;;19.40
20092;BMP180;10205;49.678;6.560;2023-08-06T10:50:33;99247.00;;;19.40
20092;BMP180;10205;49.678;6.560;2023-08-06T10:53:05;99246.00;;;19.40
20092;BMP180;10205;49.678;6.560;2023-08-06T10:55:35;99238.00;;;19.50
20092;BMP180;10205;49.678;6.560;2023-08-06T10:58:04;99244.00;;;19.50
20092;BMP180;10205;49.678;6.560;2023-08-06T11:00:31;99277.00;;;19.50
20092;BMP180;10205;49.678;6.560;2023-08-06T11:02:59;99289.00;;;19.50
20092;BMP180;10205;49.678;6.560;2023-08-06T11:05:26;99285.00;;;19.50
20092;BMP180;10205;49.678;6.560;2023-08-06T11:07:54;99278.00;;;19.50
20092;BMP180;10205;49.678;6.560;2023-08-06T11:10:23;99273.00;;;19.50
20092;BMP180;10205;49.678;6.560;2023-08-06T11:12:51;99277.00;;;19.50
20092;BMP180;10205;49.678;6.560;2023-08-06T11:15:21;99283.00;;;19.50
20092;BMP180;10205;49.678;6.560;2023-08-06T11:17:48;99280.00;;;19.50
20092;BMP180;10205;49.678;6.560;2023-08-06T11:20:16;99277.00;;;19.50
20092;BMP180;10205;49.678;6.560;2023-08-06T11:22:44;99269.00;;;19.50
20092;BMP180;10205;49.678;6.560;2023-08-06T11:25:14;99260.00;;;19.50
20092;BMP180;10205;49.678;6.560;2023-08-06T11:27:44;99278.00;;;19.50
20092;BMP180;10205;49.678;6.560;2023-08-06T11:30:12;99275.00;;;19.50
20092;BMP180;10205;49.678;6.560;2023-08-06T11:32:45;99275.00;;;19.60
20092;BMP180;10205;49.678;6.560;2023-08-06T11:35:14;99288.00;;;19.60
20092;BMP180;10205;49.678;6.560;2023-08-06T11:37:45;99270.00;;;19.60
20092;BMP180;10205;49.678;6.560;2023-08-06T11:40:15;99282.00;;;19.60
20092;BMP180;10205;49.678;6.560;2023-08-06T11:42:46;99275.00;;;19.60
20092;BMP180;10205;49.678;6.560;2023-08-06T11:45:14;99271.00;;;19.60
20092;BMP180;10205;49.678;6.560;2023-08-06T11:47:41;99277.00;;;19.70
20092;BMP180;10205;49.678;6.560;2023-08-06T11:50:21;99276.00;;;19.70
20092;BMP180;10205;49.678;6.560;2023-08-06T11:52:55;99284.00;;;19.70
20092;BMP180;10205;49.678;6.560;2023-08-06T11:55:24;99298.00;;;19.80
20092;BMP180;10205;49.678;6.560;2023-08-06T11:57:54;99286.00;;;19.80
20092;BMP180;10205;49.678;6.560;2023-08-06T12:00:24;99305.00;;;19.80
20092;BMP180;10205;49.678;6.560;2023-08-06T12:02:53;99296.00;;;19.90
20092;BMP180;10205;49.678;6.560;2023-08-06T12:05:22;99290.00;;;19.90
20092;BMP180;10205;49.678;6.560;2023-08-06T12:07:52;99285.00;;;19.90
20092;BMP180;10205;49.678;6.560;2023-08-06T12:10:21;99289.00;;;20.00
20092;BMP180;10205;49.678;6.560;2023-08-06T12:12:48;99279.00;;;20.10
20092;BMP180;10205;49.678;6.560;2023-08-06T12:15:18;99289.00;;;20.10
20092;BMP180;10205;49.678;6.560;2023-08-06T12:17:45;99283.00;;;20.20
20092;BMP180;10205;49.678;6.560;2023-08-06T12:20:13;99310.00;;;20.30
20092;BMP180;10205;49.678;6.560;2023-08-06T12:22:41;99309.00;;;20.30
20092;BMP180;10205;49.678;6.560;2023-08-06T12:25:10;99292.00;;;20.30
20092;BMP180;10205;49.678;6.560;2023-08-06T12:27:40;99293.00;;;20.40
20092;BMP180;10205;49.678;6.560;2023-08-06T12:30:09;99310.00;;;20.40
20092;BMP180;10205;49.678;6.560;2023-08-06T12:32:39;99317.00;;;20.40
20092;BMP180;10205;49.678;6.560;2023-08-06T12:35:08;99311.00;;;20.50
20092;BMP180;10205;49.678;6.560;2023-08-06T12:37:40;99319.00;;;20.50
20092;BMP180;10205;49.678;6.560;2023-08-06T12:40:10;99327.00;;;20.50
20092;BMP180;10205;49.678;6.560;2023-08-06T12:42:37;99338.00;;;20.50
20092;BMP180;10205;49.678;6.560;2023-08-06T12:45:06;99322.00;;;20.60
20092;BMP180;10205;49.678;6.560;2023-08-06T12:47:33;99320.00;;;20.60
20092;BMP180;10205;49.678;6.560;2023-08-06T12:50:03;99316.00;;;20.60
20092;BMP180;10205;49.678;6.560;2023-08-06T12:52:30;99333.00;;;20.60
20092;BMP180;10205;49.678;6.560;2023-08-06T12:54:58;99319.00;;;20.60
20092;BMP180;10205;49.678;6.560;2023-08-06T12:57:26;99333.00;;;20.70
20092;BMP180;10205;49.678;6.560;2023-08-06T12:59:55;99334.00;;;20.70
20092;BMP180;10205;49.678;6.560;2023-08-06T13:02:23;99324.00;;;20.70
20092;BMP180;10205;49.678;6.560;2023-08-06T13:04:51;99346.00;;;20.80
20092;BMP180;10205;49.678;6.560;2023-08-06T13:07:20;99362.00;;;20.70
20092;BMP180;10205;49.678;6.560;2023-08-06T13:09:47;99391.00;;;20.80
20092;BMP180;10205;49.678;6.560;2023-08-06T13:12:15;99396.00;;;20.70
20092;BMP180;10205;49.678;6.560;2023-08-06T13:14:44;99406.00;;;20.70
20092;BMP180;10205;49.678;6.560;2023-08-06T13:17:12;99396.00;;;20.70
20092;BMP180;10205;49.678;6.560;2023-08-06T13:19:39;99390.00;;;20.70
20092;BMP180;10205;49.678;6.560;2023-08-06T13:22:07;99390.00;;;20.70
20092;BMP180;10205;49.678;6.560;2023-08-06T13:24:36;99390.00;;;20.70
20092;BMP180;10205;49.678;6.560;2023-08-06T13:27:04;99391.00;;;20.70
20092;BMP180;10205;49.678;6.560;2023-08-06T13:29:32;99385.00;;;20.70
20092;BMP180;10205;49.678;6.560;2023-08-06T13:32:00;99389.00;;;20.70
20092;BMP180;10205;49.678;6.560;2023-08-06T13:34:27;99395.00;;;20.70
20092;BMP180;10205;49.678;6.560;2023-08-06T13:36:55;99397.00;;;20.70
20092;BMP180;10205;49.678;6.560;2023-08-06T13:39:22;99422.00;;;20.70
20092;BMP180;10205;49.678;6.560;2023-08-06T13:41:51;99407.00;;;20.70
20092;BMP180;10205;49.678;6.560;2023-08-06T13:44:18;99421.00;;;20.70
20092;BMP180;10205;49.678;6.560;2023-08-06T13:46:46;99420.00;;;20.70
20092;BMP180;10205;49.678;6.560;2023-08-06T13:49:13;99417.00;;;20.70
20092;BMP180;10205;49.678;6.560;2023-08-06T13:51:41;99426.00;;;20.70
20092;BMP180;10205;49.678;6.560;2023-08-06T13:54:08;99416.00;;;20.70
20092;BMP180;10205;49.678;6.560;2023-08-06T13:56:36;99433.00;;;20.70
20092;BMP180;10205;49.678;6.560;2023-08-06T13:59:05;99408.00;;;20.70
20092;BMP180;10205;49.678;6.560;2023-08-06T14:01:34;99442.00;;;20.70
20092;BMP180;10205;49.678;6.560;2023-08-06T14:04:01;99419.00;;;20.70
20092;BMP180;10205;49.678;6.560;2023-08-06T14:06:29;99434.00;;;20.70
20092;BMP180;10205;49.678;6.560;2023-08-06T14:08:57;99427.00;;;20.80
20092;BMP180;10205;49.678;6.560;2023-08-06T14:11:28;99430.00;;;20.80
20092;BMP180;10205;49.678;6.560;2023-08-06T14:13:58;99437.00;;;20.70
20092;BMP180;10205;49.678;6.560;2023-08-06T14:16:28;99439.00;;;20.70
20092;BMP180;10205;49.678;6.560;2023-08-06T14:18:55;99453.00;;;20.70